Terminal Aerodrome Forecast
Issued by NWS Twin Cities, MN

Home | Current Version | Previous Version | Text Only | Print | Product List | Glossary Off
Versions: 1 2 3 4 5 6 7 8 9 10 11 12

000
FTUS43 KMPX 301120
TAFEAU
TAF
KEAU 301120Z 3012/0112 04006KT P6SM SKC
     FM301500 07012G21KT P6SM SCT050
     FM010000 05010KT P6SM SCT050 OVC110=

USA.gov is the U.S. government's official web portal to all federal, state and local government web resources and services.